Time;durP1;ratioP1;P1;durP2;ratioP2;P2;SDS_P1;SDS_P2;PMS_P1;PMS_P2;Temp;Humidity;BMP_temperature;BMP_pressure;BME280_temperature;BME280_humidity;BME280_pressure;Samples;Min_cycle;Max_cycle;Signal;HPM_P1;HPM_P2
2023/11/17 00:00:03;;;;;;;;;;;;;;;0.56;66.88;99929.38;5088948;28;19962;-66
2023/11/17 00:02:35;;;;;;;;;;;;;;;0.60;66.95;99928.69;5073367;28;20031;-66
2023/11/17 00:05:01;;;;;;;;;;;;;;;0.66;67.22;99927.16;5075233;28;20018;-65
2023/11/17 00:07:28;;;;;;;;;;;;;;;0.67;67.27;99924.63;5084835;28;19984;-65
2023/11/17 00:09:55;;;;;;;;;;;;;;;0.66;66.61;99924.59;5085934;28;19929;-65
2023/11/17 00:12:20;;;;;;;;;;;;;;;0.56;66.95;99931.94;5068252;28;19924;-64
2023/11/17 00:14:46;;;;;;;;;;;;;;;0.54;66.86;99932.72;5085900;28;20689;-66
2023/11/17 00:17:12;;;;;;;;;;;;;;;0.57;67.13;99940.53;5086345;28;20358;-66
2023/11/17 00:19:38;;;;;;;;;;;;;;;0.57;67.29;99945.63;5088880;28;19924;-65
2023/11/17 00:22:03;;;;;;;;;;;;;;;0.65;67.05;99943.34;5070754;28;20487;-65
2023/11/17 00:24:29;;;;;;;;;;;;;;;0.70;66.85;99946.94;5074211;28;20381;-67
2023/11/17 00:26:55;;;;;;;;;;;;;;;0.70;66.94;99946.94;5089660;28;19947;-66
2023/11/17 00:29:20;;;;;;;;;;;;;;;0.70;66.85;99952.91;5090001;28;19942;-66
2023/11/17 00:31:46;;;;;;;;;;;;;;;0.69;66.71;99952.88;5089830;28;19928;-66
2023/11/17 00:34:12;;;;;;;;;;;;;;;0.64;66.91;99962.09;5074467;28;19926;-67
2023/11/17 00:36:42;;;;;;;;;;;;;;;0.55;66.57;99960.09;5086689;28;19931;-68
2023/11/17 00:39:08;;;;;;;;;;;;;;;0.53;67.03;99961.72;5092768;28;20420;-68
2023/11/17 00:41:34;;;;;;;;;;;;;;;0.62;67.16;99959.47;5086591;28;19931;-67
2023/11/17 00:44:01;;;;;;;;;;;;;;;0.67;67.26;99967.31;5089610;28;19919;-66
2023/11/17 00:46:26;;;;;;;;;;;;;;;0.69;66.93;99963.13;5089002;28;19924;-67
2023/11/17 00:48:52;;;;;;;;;;;;;;;0.59;66.22;99961.94;5087229;28;19927;-67
2023/11/17 00:51:18;;;;;;;;;;;;;;;0.55;66.59;99960.09;5086084;28;21265;-68
2023/11/17 00:53:44;;;;;;;;;;;;;;;0.54;67.06;99969.47;5103094;28;20408;-67
2023/11/17 00:56:10;;;;;;;;;;;;;;;0.56;66.84;99961.81;5089714;28;19919;-67
2023/11/17 00:58:37;;;;;;;;;;;;;;;0.56;66.37;99965.25;5086519;28;19973;-67
2023/11/17 01:01:03;;;;;;;;;;;;;;;0.57;67.49;99964.44;5107927;28;19971;-67
2023/11/17 01:03:29;;;;;;;;;;;;;;;0.53;66.91;99960.03;5094181;28;20012;-67
2023/11/17 01:05:57;;;;;;;;;;;;;;;0.46;66.77;99970.88;5091734;28;19974;-67
2023/11/17 01:08:23;;;;;;;;;;;;;;;0.43;66.68;99973.34;5077741;28;20007;-67
2023/11/17 01:10:50;;;;;;;;;;;;;;;0.41;66.59;99969.84;5098973;28;20040;-66
2023/11/17 01:13:16;;;;;;;;;;;;;;;0.39;66.85;99971.47;5092069;28;19935;-68
2023/11/17 01:15:41;;;;;;;;;;;;;;;0.32;66.81;99967.84;5091144;28;19924;-67
2023/11/17 01:18:07;;;;;;;;;;;;;;;0.29;66.82;99968.63;5111861;27;20201;-67
2023/11/17 01:20:34;;;;;;;;;;;;;;;0.23;66.99;99973.50;5090471;28;19929;-67
2023/11/17 01:23:01;;;;;;;;;;;;;;;0.28;67.50;99976.22;5069712;28;20377;-67
2023/11/17 01:25:32;;;;;;;;;;;;;;;0.27;67.08;99977.03;5090066;28;19924;-67
2023/11/17 01:27:58;;;;;;;;;;;;;;;0.25;66.77;99979.56;5058242;28;19973;-68
2023/11/17 01:30:24;;;;;;;;;;;;;;;0.27;67.21;99984.72;5113355;27;20770;-67
2023/11/17 01:32:50;;;;;;;;;;;;;;;0.21;66.72;99985.38;5094535;28;19924;-67
2023/11/17 01:35:16;;;;;;;;;;;;;;;0.21;67.35;99987.06;5090510;28;19972;-66
2023/11/17 01:37:42;;;;;;;;;;;;;;;0.25;67.44;99983.78;5081348;28;20390;-67
2023/11/17 01:40:09;;;;;;;;;;;;;;;0.24;67.25;99982.94;5090719;28;19924;-68
2023/11/17 01:42:37;;;;;;;;;;;;;;;0.24;66.51;99987.16;5090150;28;19924;-66
2023/11/17 01:45:07;;;;;;;;;;;;;;;0.23;66.80;99991.44;5093156;28;19919;-68
2023/11/17 01:47:38;;;;;;;;;;;;;;;0.27;66.47;99998.41;5094811;28;19920;-68
2023/11/17 01:50:05;;;;;;;;;;;;;;;0.32;66.65;100005.38;5091798;28;20326;-68
2023/11/17 01:52:31;;;;;;;;;;;;;;;0.33;66.52;100002.00;5090741;28;20382;-67
2023/11/17 01:54:57;;;;;;;;;;;;;;;0.27;65.54;100008.66;5090663;28;19920;-69
2023/11/17 01:57:23;;;;;;;;;;;;;;;0.24;66.36;100005.97;5072501;28;20247;-70
2023/11/17 01:59:49;;;;;;;;;;;;;;;0.26;66.49;100004.34;5091668;28;19920;-71
2023/11/17 02:02:15;;;;;;;;;;;;;;;0.19;66.78;100010.03;5073693;28;20497;-70
2023/11/17 02:04:41;;;;;;;;;;;;;;;0.17;66.55;100010.81;5091269;28;19969;-71
2023/11/17 02:07:12;;;;;;;;;;;;;;;0.10;65.58;100015.69;5090300;28;19920;-70
2023/11/17 02:09:57;;;;;;;;;;;;;;;0.12;66.99;100015.75;5062810;28;19923;-70
2023/11/17 02:12:52;;;;;;;;;;;;;;;0.12;66.98;100015.75;5092417;28;20378;-70
2023/11/17 02:15:23;;;;;;;;;;;;;;;0.21;66.99;100022.91;5071882;28;20450;-71
2023/11/17 02:17:52;;;;;;;;;;;;;;;0.27;66.88;100024.00;5091610;28;19924;-70
2023/11/17 02:20:20;;;;;;;;;;;;;;;0.24;66.14;100026.44;5092447;27;19923;-70
2023/11/17 02:22:48;;;;;;;;;;;;;;;0.30;66.78;100033.47;5069257;28;20362;-69
2023/11/17 02:25:32;;;;;;;;;;;;;;;0.31;66.41;100034.34;5091692;28;20058;-69
2023/11/17 02:28:20;;;;;;;;;;;;;;;0.34;66.14;100037.88;5057516;28;20004;-68
2023/11/17 02:30:55;;;;;;;;;;;;;;;0.35;66.40;100036.19;5070668;28;19919;-69
2023/11/17 02:33:24;;;;;;;;;;;;;;;0.35;65.86;100037.06;5089929;28;19924;-66
2023/11/17 02:35:52;;;;;;;;;;;;;;;0.35;65.81;100038.75;5077823;28;20639;-69
2023/11/17 02:38:18;;;;;;;;;;;;;;;0.33;66.62;100040.41;5089087;28;19923;-66
2023/11/17 02:40:45;;;;;;;;;;;;;;;0.33;66.34;100045.53;5057288;28;20263;-66
2023/11/17 02:43:12;;;;;;;;;;;;;;;0.36;66.46;100049.06;5121042;27;19928;-66
2023/11/17 02:45:40;;;;;;;;;;;;;;;0.38;65.99;100050.00;5091100;28;19923;-66
2023/11/17 02:48:06;;;;;;;;;;;;;;;0.33;65.33;100043.81;5122047;27;19959;-69
2023/11/17 02:50:38;;;;;;;;;;;;;;;0.35;65.68;100042.19;5069725;28;19989;-68
2023/11/17 02:53:23;;;;;;;;;;;;;;;0.35;65.07;100046.44;5080344;28;20042;-68
2023/11/17 02:55:52;;;;;;;;;;;;;;;0.31;65.19;100050.56;5119196;27;19927;-68
2023/11/17 02:58:19;;;;;;;;;;;;;;;0.28;65.42;100056.47;5073103;28;19972;-68
2023/11/17 03:00:47;;;;;;;;;;;;;;;0.21;65.53;100054.47;5090948;28;19920;-68
2023/11/17 03:03:13;;;;;;;;;;;;;;;0.12;64.81;100059.25;5054270;28;19954;-68
2023/11/17 03:05:39;;;;;;;;;;;;;;;0.09;65.71;100062.56;5087247;28;20090;-68
2023/11/17 03:08:05;;;;;;;;;;;;;;;0.21;65.23;100057.03;5095537;28;19931;-67
2023/11/17 03:10:30;;;;;;;;;;;;;;;0.31;65.26;100067.63;5089784;28;19924;-67
2023/11/17 03:12:56;;;;;;;;;;;;;;;0.26;64.86;100067.44;5087226;28;19928;-67
2023/11/17 03:15:24;;;;;;;;;;;;;;;0.24;64.91;100075.09;5078634;28;19920;-68
2023/11/17 03:17:51;;;;;;;;;;;;;;;0.23;65.03;100068.22;5090867;28;19987;-67
2023/11/17 03:20:18;;;;;;;;;;;;;;;0.23;64.68;100078.47;5105500;27;19963;-67
2023/11/17 03:22:44;;;;;;;;;;;;;;;0.09;64.77;100079.63;5088666;28;20020;-67
2023/11/17 03:25:17;;;;;;;;;;;;;;;0.13;65.40;100074.69;5089851;28;20041;-68
2023/11/17 03:27:50;;;;;;;;;;;;;;;0.16;65.25;100086.72;5077584;28;20263;-68
2023/11/17 03:30:17;;;;;;;;;;;;;;;0.21;64.65;100074.09;5072715;28;20069;-68
2023/11/17 03:32:44;;;;;;;;;;;;;;;0.26;64.76;100072.56;5094174;28;19984;-68
2023/11/17 03:35:09;;;;;;;;;;;;;;;0.33;64.41;100081.38;5071859;28;19920;-69
2023/11/17 03:37:35;;;;;;;;;;;;;;;0.28;64.31;100081.19;5089152;28;19931;-69
2023/11/17 03:40:11;;;;;;;;;;;;;;;0.27;64.64;100084.56;5074726;28;19920;-69
2023/11/17 03:42:37;;;;;;;;;;;;;;;0.24;64.34;100080.19;5061671;28;20465;-69
2023/11/17 03:45:07;;;;;;;;;;;;;;;0.26;64.35;100073.44;5078296;28;19959;-69
2023/11/17 03:47:36;;;;;;;;;;;;;;;0.22;63.77;100088.66;5102937;27;19973;-70
2023/11/17 03:50:03;;;;;;;;;;;;;;;0.16;63.67;100086.72;5104234;27;20043;-69
2023/11/17 03:52:31;;;;;;;;;;;;;;;0.10;64.06;100086.50;5119128;27;20495;-70
2023/11/17 03:55:00;;;;;;;;;;;;;;;0.04;63.95;100083.69;5118796;27;19923;-69
2023/11/17 03:57:27;;;;;;;;;;;;;;;0.07;64.19;100079.56;5088721;28;19920;-69
2023/11/17 03:59:53;;;;;;;;;;;;;;;0.12;64.71;100077.16;5106534;27;19919;-67
2023/11/17 04:02:22;;;;;;;;;;;;;;;0.08;63.63;100080.44;5085969;28;19976;-67
2023/11/17 04:04:51;;;;;;;;;;;;;;;0.05;64.30;100083.75;5090985;28;19930;-68
2023/11/17 04:07:16;;;;;;;;;;;;;;;-0.08;63.39;100084.09;5090286;28;20029;-67
2023/11/17 04:09:43;;;;;;;;;;;;;;;-0.09;64.13;100095.16;5087778;28;19950;-67
2023/11/17 04:12:09;;;;;;;;;;;;;;;0.02;64.55;100093.84;5065007;28;19935;-67
2023/11/17 04:14:41;;;;;;;;;;;;;;;0.15;64.36;100100.31;5087181;28;20617;-65
2023/11/17 04:17:08;;;;;;;;;;;;;;;0.16;63.33;100102.06;5069509;28;19971;-65
2023/11/17 04:19:35;;;;;;;;;;;;;;;0.17;63.50;100101.25;5087279;28;19924;-68
2023/11/17 04:22:02;;;;;;;;;;;;;;;0.12;63.19;100105.31;5088533;28;19924;-68
2023/11/17 04:24:28;;;;;;;;;;;;;;;0.14;63.77;100103.69;5102800;27;20019;-67
2023/11/17 04:26:56;;;;;;;;;;;;;;;0.20;63.33;100109.06;5086802;28;21169;-68
2023/11/17 04:29:22;;;;;;;;;;;;;;;0.14;63.70;100106.25;5085397;28;19967;-68
2023/11/17 04:31:48;;;;;;;;;;;;;;;0.21;63.80;100113.34;5071489;28;20022;-68
2023/11/17 04:34:14;;;;;;;;;;;;;;;0.19;63.24;100112.44;5069164;28;19961;-67
2023/11/17 04:36:40;;;;;;;;;;;;;;;0.25;63.62;100115.22;5086491;28;19927;-67
2023/11/17 04:39:17;;;;;;;;;;;;;;;0.28;63.23;100120.47;5086018;28;20338;-66
2023/11/17 04:41:43;;;;;;;;;;;;;;;0.28;63.16;100125.59;5071250;28;19971;-66
2023/11/17 04:44:09;;;;;;;;;;;;;;;0.21;63.30;100123.59;5084853;28;20430;-67
2023/11/17 04:46:35;;;;;;;;;;;;;;;0.21;62.91;100127.88;5083765;28;20438;-66
2023/11/17 04:49:01;;;;;;;;;;;;;;;0.19;63.09;100132.03;5086364;28;19920;-67
2023/11/17 04:51:26;;;;;;;;;;;;;;;0.14;63.50;100139.53;5089017;28;19920;-66
2023/11/17 04:53:52;;;;;;;;;;;;;;;0.18;63.49;100136.28;5103742;28;19927;-67
2023/11/17 04:56:18;;;;;;;;;;;;;;;0.26;63.24;100132.34;5121523;27;20691;-67
2023/11/17 04:58:44;;;;;;;;;;;;;;;0.24;62.30;100141.63;5087952;28;20443;-66
2023/11/17 05:01:10;;;;;;;;;;;;;;;0.20;62.64;100144.03;5076126;28;20329;-67
2023/11/17 05:03:36;;;;;;;;;;;;;;;0.20;62.69;100134.66;5084153;28;19923;-67
2023/11/17 05:06:06;;;;;;;;;;;;;;;0.21;63.26;100146.63;5067597;28;19962;-66
2023/11/17 05:08:32;;;;;;;;;;;;;;;0.23;62.37;100146.69;5121643;27;19924;-68
2023/11/17 05:10:59;;;;;;;;;;;;;;;0.20;63.15;100144.88;5087773;28;19923;-68
2023/11/17 05:13:25;;;;;;;;;;;;;;;0.32;63.35;100147.06;5068033;28;19924;-67
2023/11/17 05:15:51;;;;;;;;;;;;;;;0.29;62.53;100145.25;5086737;28;20046;-68
2023/11/17 05:18:17;;;;;;;;;;;;;;;0.27;62.90;100154.56;5073206;28;20026;-70
2023/11/17 05:20:43;;;;;;;;;;;;;;;0.23;62.93;100160.38;5103098;28;20010;-69
2023/11/17 05:23:12;;;;;;;;;;;;;;;0.19;63.46;100161.06;5084784;28;19920;-69
2023/11/17 05:25:41;;;;;;;;;;;;;;;0.18;63.17;100161.00;5069487;28;19968;-68
2023/11/17 05:28:08;;;;;;;;;;;;;;;0.16;63.24;100168.63;5086154;28;19931;-68
2023/11/17 05:30:34;;;;;;;;;;;;;;;0.18;62.90;100174.66;5085353;28;19920;-68
2023/11/17 05:33:00;;;;;;;;;;;;;;;0.22;63.34;100175.69;5084708;28;19924;-69
2023/11/17 05:35:26;;;;;;;;;;;;;;;0.13;63.33;100155.69;5084444;28;20072;-70
2023/11/17 05:37:51;;;;;;;;;;;;;;;0.37;63.48;100177.94;5074942;28;20451;-69
2023/11/17 05:40:18;;;;;;;;;;;;;;;0.38;62.21;100179.69;5087349;28;20294;-68
2023/11/17 05:42:44;;;;;;;;;;;;;;;0.38;62.61;100180.56;5084843;28;19923;-68
2023/11/17 05:45:12;;;;;;;;;;;;;;;0.37;63.08;100189.06;5091826;28;19920;-67
2023/11/17 05:47:38;;;;;;;;;;;;;;;0.41;62.93;100188.38;5084873;28;19957;-68
2023/11/17 05:50:05;;;;;;;;;;;;;;;0.50;63.31;100184.41;5088195;28;19927;-68
2023/11/17 05:52:31;;;;;;;;;;;;;;;0.52;62.58;100193.91;5070911;28;20654;-67
2023/11/17 05:54:56;;;;;;;;;;;;;;;0.55;63.21;100200.81;5058291;28;19920;-66
2023/11/17 05:57:22;;;;;;;;;;;;;;;0.38;62.19;100205.28;5088859;28;20232;-68
2023/11/17 05:59:53;;;;;;;;;;;;;;;0.34;62.56;100208.53;5106523;27;19924;-69
2023/11/17 06:02:19;;;;;;;;;;;;;;;0.25;61.82;100212.50;5068580;28;19931;-68
2023/11/17 06:04:46;;;;;;;;;;;;;;;0.27;62.48;100210.00;5129140;27;19925;-69
2023/11/17 06:07:12;;;;;;;;;;;;;;;0.29;62.40;100222.06;5089960;28;20359;-67
2023/11/17 06:09:38;;;;;;;;;;;;;;;0.31;62.38;100221.25;5092949;28;19926;-68
2023/11/17 06:12:05;;;;;;;;;;;;;;;0.27;62.25;100223.69;5074128;28;19935;-69
2023/11/17 06:14:30;;;;;;;;;;;;;;;0.31;62.17;100224.66;5064360;28;19927;-71
2023/11/17 06:16:57;;;;;;;;;;;;;;;0.31;61.93;100222.09;5092110;28;19924;-70
2023/11/17 06:19:23;;;;;;;;;;;;;;;0.32;61.69;100230.69;5092015;28;20795;-68
2023/11/17 06:21:49;;;;;;;;;;;;;;;0.32;61.77;100230.69;5081928;28;19920;-69
2023/11/17 06:24:15;;;;;;;;;;;;;;;0.43;62.22;100232.84;5072468;28;19980;-69
2023/11/17 06:26:48;;;;;;;;;;;;;;;0.63;62.73;100231.84;5091424;28;19945;-74
2023/11/17 06:29:22;;;;;;;;;;;;;;;0.72;62.04;100227.94;5093385;28;20302;-68
2023/11/17 06:31:48;;;;;;;;;;;;;;;0.80;61.67;100227.38;5090701;28;19924;-70
2023/11/17 06:34:15;;;;;;;;;;;;;;;0.97;62.04;100228.00;5091250;28;20015;-69
2023/11/17 06:36:44;;;;;;;;;;;;;;;0.98;61.69;100225.50;5092223;28;19980;-70
2023/11/17 06:39:16;;;;;;;;;;;;;;;0.90;61.42;100230.34;5090242;28;19920;-71
2023/11/17 06:41:42;;;;;;;;;;;;;;;0.83;61.35;100240.31;5088862;28;20345;-74
2023/11/17 06:44:09;;;;;;;;;;;;;;;0.90;61.71;100237.13;5105452;27;19931;-76
2023/11/17 06:46:36;;;;;;;;;;;;;;;0.96;61.22;100239.94;5090413;28;19938;-67
2023/11/17 06:49:04;;;;;;;;;;;;;;;2.21;62.30;100242.50;5089962;28;19920;-69
2023/11/17 06:51:31;;;;;;;;;;;;;;;3.05;62.23;100233.03;5089266;28;19920;-67
2023/11/17 06:53:57;;;;;;;;;;;;;;;4.49;61.54;100228.97;5059641;28;19927;-66
2023/11/17 06:56:24;;;;;;;;;;;;;;;5.71;60.65;100224.53;5074898;28;19923;-65
2023/11/17 06:58:50;;;;;;;;;;;;;;;6.46;58.31;100229.22;5089173;28;19926;-65
2023/11/17 07:01:18;;;;;;;;;;;;;;;5.82;56.09;100232.47;5071241;28;20028;-65
2023/11/17 07:03:44;;;;;;;;;;;;;;;5.20;56.88;100232.19;5087824;28;20148;-65
2023/11/17 07:06:11;;;;;;;;;;;;;;;4.51;57.14;100240.19;5075408;28;20400;-64
2023/11/17 07:08:37;;;;;;;;;;;;;;;3.98;57.71;100243.22;5059985;28;19919;-65
2023/11/17 07:11:03;;;;;;;;;;;;;;;3.51;57.38;100250.59;5091318;28;19919;-65
2023/11/17 07:13:33;;;;;;;;;;;;;;;3.31;57.96;100248.34;5101946;27;20532;-65
2023/11/17 07:15:58;;;;;;;;;;;;;;;3.14;58.07;100258.16;5089915;28;19924;-66
2023/11/17 07:18:27;;;;;;;;;;;;;;;2.98;58.21;100242.25;5081292;28;20539;-66
2023/11/17 07:20:54;;;;;;;;;;;;;;;2.91;58.05;100255.78;5094256;28;20465;-66
2023/11/17 07:23:20;;;;;;;;;;;;;;;2.82;57.90;100258.94;5041002;28;19947;-67
2023/11/17 07:25:46;;;;;;;;;;;;;;;2.84;57.61;100259.88;5075103;28;19970;-65
2023/11/17 07:28:16;;;;;;;;;;;;;;;3.06;58.13;100262.19;5090842;28;20374;-66
2023/11/17 07:30:43;;;;;;;;;;;;;;;3.20;58.24;100266.00;5078993;28;19920;-66
2023/11/17 07:33:10;;;;;;;;;;;;;;;3.25;57.93;100271.31;5080222;28;19928;-66
2023/11/17 07:35:40;;;;;;;;;;;;;;;3.34;57.42;100268.13;5087936;28;19919;-66
2023/11/17 07:38:05;;;;;;;;;;;;;;;3.17;56.70;100269.38;5091291;28;19942;-66
2023/11/17 07:40:32;;;;;;;;;;;;;;;2.66;57.25;100252.47;5072357;28;20459;-66
2023/11/17 07:42:58;;;;;;;;;;;;;;;2.71;57.37;100271.47;5092952;28;19924;-66
2023/11/17 07:45:26;;;;;;;;;;;;;;;3.05;57.56;100270.72;5072523;28;19926;-66
2023/11/17 07:47:54;;;;;;;;;;;;;;;4.27;56.65;100273.13;5088630;28;19923;-66
2023/11/17 07:50:19;;;;;;;;;;;;;;;4.35;57.21;100264.72;5088408;28;20006;-66
2023/11/17 07:52:45;;;;;;;;;;;;;;;4.03;55.63;100269.09;5088176;28;20023;-66
2023/11/17 07:55:14;;;;;;;;;;;;;;;3.68;55.96;100271.59;5071472;28;19924;-66
2023/11/17 07:57:41;;;;;;;;;;;;;;;3.46;56.21;100284.78;5090148;28;19924;-67
2023/11/17 08:00:17;;;;;;;;;;;;;;;3.27;55.76;100287.66;5090283;28;19924;-66
2023/11/17 08:02:44;;;;;;;;;;;;;;;3.15;56.20;100289.03;5071133;28;19929;-67
2023/11/17 08:05:10;;;;;;;;;;;;;;;3.01;55.97;100293.78;5060305;28;19924;-65
2023/11/17 08:07:37;;;;;;;;;;;;;;;2.90;56.01;100299.41;5059193;28;19952;-66
2023/11/17 08:10:06;;;;;;;;;;;;;;;2.89;55.94;100301.13;5072148;28;19930;-66
2023/11/17 08:12:32;;;;;;;;;;;;;;;2.87;56.31;100302.78;5088555;28;20996;-66
2023/11/17 08:14:59;;;;;;;;;;;;;;;2.99;55.79;100308.28;5081531;28;19924;-65
2023/11/17 08:17:27;;;;;;;;;;;;;;;3.00;55.83;100298.88;5089598;28;19928;-65
2023/11/17 08:19:54;;;;;;;;;;;;;;;2.93;55.36;100312.38;5067099;28;20011;-66
2023/11/17 08:22:20;;;;;;;;;;;;;;;2.71;55.59;100307.47;5085913;28;19965;-65
2023/11/17 08:24:46;;;;;;;;;;;;;;;2.66;55.42;100314.16;5086460;28;19924;-66
2023/11/17 08:27:14;;;;;;;;;;;;;;;2.64;55.80;100318.38;5088077;28;20378;-65
2023/11/17 08:29:40;;;;;;;;;;;;;;;2.60;55.55;100319.09;5110478;27;19924;-65
2023/11/17 08:32:07;;;;;;;;;;;;;;;2.58;55.64;100325.00;5088686;28;19923;-66
2023/11/17 08:34:33;;;;;;;;;;;;;;;2.52;55.72;100323.13;5087107;28;20014;-65
2023/11/17 08:36:59;;;;;;;;;;;;;;;2.41;55.89;100326.19;5061398;28;19967;-67
2023/11/17 08:39:25;;;;;;;;;;;;;;;2.22;55.54;100321.28;5078242;28;19955;-66
2023/11/17 08:41:54;;;;;;;;;;;;;;;2.10;55.51;100325.16;5097952;28;19955;-66
2023/11/17 08:44:21;;;;;;;;;;;;;;;1.98;55.68;100327.34;5078736;28;20034;-67
2023/11/17 08:46:49;;;;;;;;;;;;;;;2.03;56.00;100328.38;5102599;28;20405;-68
2023/11/17 08:49:16;;;;;;;;;;;;;;;1.76;55.52;100300.06;5087567;28;19924;-68
2023/11/17 08:51:42;;;;;;;;;;;;;;;1.69;55.21;100329.75;5107613;28;19920;-67
2023/11/17 08:54:08;;;;;;;;;;;;;;;1.58;55.85;100336.19;5057913;28;19943;-71
2023/11/17 08:56:35;;;;;;;;;;;;;;;1.47;56.14;100334.09;5071257;28;20394;-66
2023/11/17 08:59:05;;;;;;;;;;;;;;;1.46;56.25;100337.47;5090292;28;19919;-67
2023/11/17 09:01:32;;;;;;;;;;;;;;;1.70;56.34;100336.63;5091329;27;19928;-69
2023/11/17 09:03:59;;;;;;;;;;;;;;;2.91;58.24;100330.34;5089694;28;19920;-68
2023/11/17 09:06:27;;;;;;;;;;;;;;;4.79;59.69;100325.88;5065423;28;20037;-67
2023/11/17 09:08:53;;;;;;;;;;;;;;;7.47;56.67;100313.34;5091172;28;19923;-69
2023/11/17 09:11:19;;;;;;;;;;;;;;;9.73;58.07;100303.78;5088265;28;19930;-68
2023/11/17 09:13:49;;;;;;;;;;;;;;;11.86;55.62;100291.25;5090292;28;20309;-66
2023/11/17 09:16:16;;;;;;;;;;;;;;;13.91;53.59;100283.97;5084302;28;19920;-65
2023/11/17 09:18:41;;;;;;;;;;;;;;;15.29;47.29;100279.81;5088038;28;19920;-66
2023/11/17 09:21:07;;;;;;;;;;;;;;;16.14;48.52;100279.69;5089690;28;19934;-66
2023/11/17 09:23:36;;;;;;;;;;;;;;;17.23;45.46;100276.88;5075384;28;20413;-66
2023/11/17 09:26:03;;;;;;;;;;;;;;;17.58;43.06;100275.81;5059344;28;19973;-68
2023/11/17 09:28:29;;;;;;;;;;;;;;;16.92;40.72;100272.44;5079905;28;19927;-67
2023/11/17 09:30:56;;;;;;;;;;;;;;;16.94;40.60;100286.41;5057644;28;20259;-68
2023/11/17 09:33:23;;;;;;;;;;;;;;;14.93;40.33;100289.25;5079139;28;20019;-67
2023/11/17 09:35:49;;;;;;;;;;;;;;;13.24;42.01;100293.53;5097941;27;19923;-68
2023/11/17 09:38:17;;;;;;;;;;;;;;;11.73;43.15;100300.91;5075602;28;20020;-68
2023/11/17 09:40:43;;;;;;;;;;;;;;;10.31;44.55;100312.50;5091886;28;19963;-66
2023/11/17 09:43:19;;;;;;;;;;;;;;;9.38;44.52;100313.19;5091213;28;19930;-68
2023/11/17 09:45:47;;;;;;;;;;;;;;;8.56;45.59;100317.88;5094941;28;19923;-68
2023/11/17 09:48:14;;;;;;;;;;;;;;;7.90;45.97;100323.31;5096454;28;19920;-67
2023/11/17 09:50:43;;;;;;;;;;;;;;;7.40;46.57;100333.09;5097069;28;20385;-67
2023/11/17 09:53:12;;;;;;;;;;;;;;;6.97;46.76;100336.00;5110037;27;19928;-69
2023/11/17 09:55:38;;;;;;;;;;;;;;;6.71;47.12;100339.06;5084595;28;19943;-69
2023/11/17 09:58:06;;;;;;;;;;;;;;;6.42;47.33;100336.00;5097186;28;20038;-68
2023/11/17 10:00:33;;;;;;;;;;;;;;;5.87;47.45;100341.88;5093929;28;19928;-64
2023/11/17 10:03:04;;;;;;;;;;;;;;;5.55;47.57;100342.13;5083297;28;19919;-66
2023/11/17 10:05:33;;;;;;;;;;;;;;;5.17;47.33;100350.81;5128888;27;20292;-66
2023/11/17 10:08:15;;;;;;;;;;;;;;;4.13;47.48;100255.59;5124264;27;20343;-65
2023/11/17 10:10:44;;;;;;;;;;;;;;;4.55;48.08;100357.13;5125994;27;19951;-65
2023/11/17 10:13:11;;;;;;;;;;;;;;;4.36;47.23;100358.34;5110675;27;19928;-66
2023/11/17 10:15:46;;;;;;;;;;;;;;;3.77;47.53;100326.78;5099076;27;19923;-68
2023/11/17 10:18:17;;;;;;;;;;;;;;;3.67;47.63;100359.97;5099383;27;19934;-69
2023/11/17 10:20:45;;;;;;;;;;;;;;;3.40;48.14;100361.78;5095425;28;20043;-67
2023/11/17 10:23:11;;;;;;;;;;;;;;;3.36;47.83;100369.38;5095822;28;20624;-71
2023/11/17 10:25:40;;;;;;;;;;;;;;;3.43;47.79;100364.47;5081909;28;19927;-67
2023/11/17 10:28:08;;;;;;;;;;;;;;;3.31;47.60;100376.97;5093589;28;19920;-69
2023/11/17 10:30:37;;;;;;;;;;;;;;;3.12;48.05;100375.53;5075426;28;19927;-70
2023/11/17 10:33:22;;;;;;;;;;;;;;;2.55;48.02;100308.66;5129539;27;20035;-69
2023/11/17 10:36:11;;;;;;;;;;;;;;;2.84;47.87;100390.97;5069152;28;19967;-69
2023/11/17 10:38:52;;;;;;;;;;;;;;;2.71;47.75;100387.13;5089278;28;20317;-69
2023/11/17 10:41:24;;;;;;;;;;;;;;;2.61;48.47;100389.34;5089039;28;19939;-69
2023/11/17 10:43:51;;;;;;;;;;;;;;;2.54;48.23;100393.38;5071715;28;20381;-68
2023/11/17 10:46:21;;;;;;;;;;;;;;;2.44;48.70;100404.19;5089071;28;19920;-68
2023/11/17 10:48:52;;;;;;;;;;;;;;;2.24;48.10;100404.41;5070555;28;19924;-67
2023/11/17 10:51:23;;;;;;;;;;;;;;;2.11;48.49;100413.38;5086476;28;20461;-67
2023/11/17 10:54:04;;;;;;;;;;;;;;;2.03;48.56;100402.81;5093139;28;19935;-69
2023/11/17 10:56:32;;;;;;;;;;;;;;;1.99;49.13;100411.22;5093750;28;19920;-68
2023/11/17 10:58:59;;;;;;;;;;;;;;;1.95;49.14;100407.69;5092640;28;20788;-67
2023/11/17 11:01:31;;;;;;;;;;;;;;;1.83;49.32;100401.25;5104991;27;19931;-66
2023/11/17 11:03:58;;;;;;;;;;;;;;;1.75;49.26;100404.38;5091701;28;19920;-70
2023/11/17 11:06:27;;;;;;;;;;;;;;;1.74;49.35;100409.47;5075810;28;20365;-70
2023/11/17 11:08:54;;;;;;;;;;;;;;;1.79;49.59;100416.53;5095702;28;19923;-70
2023/11/17 11:11:20;;;;;;;;;;;;;;;1.73;49.35;100418.84;5109999;27;19928;-72
2023/11/17 11:13:53;;;;;;;;;;;;;;;1.68;49.94;100417.81;5092360;28;19973;-71
2023/11/17 11:16:19;;;;;;;;;;;;;;;1.62;49.66;100420.16;5094819;28;20381;-71
2023/11/17 11:18:46;;;;;;;;;;;;;;;1.50;49.78;100418.88;5079894;28;19955;-70
2023/11/17 11:21:16;;;;;;;;;;;;;;;1.49;49.80;100423.94;5064198;28;19986;-69
2023/11/17 11:23:46;;;;;;;;;;;;;;;1.42;50.33;100420.28;5097383;28;19920;-68
2023/11/17 11:26:13;;;;;;;;;;;;;;;1.41;50.32;100420.22;5077918;28;19989;-66
2023/11/17 11:28:41;;;;;;;;;;;;;;;1.40;50.10;100428.72;5074555;28;19931;-67
2023/11/17 11:31:11;;;;;;;;;;;;;;;1.30;50.25;100430.06;5095293;28;19940;-69
2023/11/17 11:33:37;;;;;;;;;;;;;;;1.18;50.49;100430.44;5090454;28;20405;-67
2023/11/17 11:36:05;;;;;;;;;;;;;;;1.19;50.72;100440.78;5091858;28;19965;-67
2023/11/17 11:38:31;;;;;;;;;;;;;;;1.17;50.91;100432.16;5090225;28;19943;-68
2023/11/17 11:41:00;;;;;;;;;;;;;;;1.19;50.70;100438.22;5091687;28;20600;-68
2023/11/17 11:43:30;;;;;;;;;;;;;;;1.14;50.83;100442.28;5090533;28;19920;-68
2023/11/17 11:45:57;;;;;;;;;;;;;;;1.18;51.02;100439.03;5091056;28;19967;-67
2023/11/17 11:48:29;;;;;;;;;;;;;;;1.14;50.70;100446.53;5074464;28;20354;-67
2023/11/17 11:50:55;;;;;;;;;;;;;;;1.12;51.32;100437.88;5076034;28;19962;-66
2023/11/17 11:53:27;;;;;;;;;;;;;;;1.13;50.96;100444.78;5092144;28;19938;-66
2023/11/17 11:56:02;;;;;;;;;;;;;;;1.08;51.29;100439.47;5094703;28;19978;-68
2023/11/17 11:58:28;;;;;;;;;;;;;;;1.08;51.07;100443.72;5093368;28;19920;-69
2023/11/17 12:00:54;;;;;;;;;;;;;;;1.06;51.21;100448.78;5091028;28;19927;-67
2023/11/17 12:03:20;;;;;;;;;;;;;;;1.03;51.30;100454.66;5095115;28;19919;-69
2023/11/17 12:05:46;;;;;;;;;;;;;;;0.95;51.49;100450.91;5075247;28;19928;-68
2023/11/17 12:08:29;;;;;;;;;;;;;;;0.80;51.09;100446.03;5091899;28;19919;-70
2023/11/17 12:11:01;;;;;;;;;;;;;;;0.62;51.01;100455.53;5093891;28;19920;-68
2023/11/17 12:13:39;;;;;;;;;;;;;;;0.52;52.03;100465.41;5076484;28;20399;-68
2023/11/17 12:16:09;;;;;;;;;;;;;;;0.51;51.65;100467.88;5093105;28;19960;-69
2023/11/17 12:18:34;;;;;;;;;;;;;;;0.54;51.92;100463.78;5095002;28;20331;-68
2023/11/17 12:21:16;;;;;;;;;;;;;;;0.60;51.90;100466.56;5109299;27;19923;-69
2023/11/17 12:23:50;;;;;;;;;;;;;;;0.62;52.05;100476.91;5082086;28;19927;-69
2023/11/17 12:26:19;;;;;;;;;;;;;;;0.66;51.72;100485.59;5079056;28;19920;-69
2023/11/17 12:28:46;;;;;;;;;;;;;;;0.57;51.72;100484.38;5075490;28;19936;-67
2023/11/17 12:31:14;;;;;;;;;;;;;;;0.54;51.63;100484.28;5107729;27;19965;-69
2023/11/17 12:33:40;;;;;;;;;;;;;;;0.55;51.48;100488.56;5077823;28;19954;-69
2023/11/17 12:36:14;;;;;;;;;;;;;;;0.56;51.97;100498.00;5108653;27;20496;-71
2023/11/17 12:38:43;;;;;;;;;;;;;;;0.55;51.59;100497.94;5089929;28;19978;-68
2023/11/17 12:41:16;;;;;;;;;;;;;;;0.48;51.92;100509.59;5093194;28;19927;-69
2023/11/17 12:43:47;;;;;;;;;;;;;;;0.41;51.39;100505.03;5073895;28;19970;-70
2023/11/17 12:46:13;;;;;;;;;;;;;;;0.40;52.38;100510.94;5093350;28;19931;-69
2023/11/17 12:48:39;;;;;;;;;;;;;;;0.24;51.22;100517.06;5086356;28;19924;-69
2023/11/17 12:51:05;;;;;;;;;;;;;;;-0.12;51.93;100479.69;5089379;28;19924;-68